Time;durP1;ratioP1;P1;durP2;ratioP2;P2;SDS_P1;SDS_P2;PMS_P1;PMS_P2;Temp;Humidity;BMP_temperature;BMP_pressure;BME280_temperature;BME280_humidity;BME280_pressure;Samples;Min_cycle;Max_cycle;Signal;HPM_P1;HPM_P2
2023/07/04 00:00:25;;;;;;;43.17;10.88;;;;;;;17.03;100.00;92477.44;4963402;29;20024;-79
2023/07/04 00:02:51;;;;;;;443.85;17.95;;;;;;;16.94;100.00;92471.47;4959003;29;20058;-80
2023/07/04 00:05:17;;;;;;;13.38;9.52;;;;;;;16.96;100.00;92479.09;4962291;28;20489;-80
2023/07/04 00:07:43;;;;;;;21.58;10.52;;;;;;;16.98;100.00;92484.81;4947047;29;20063;-80
2023/07/04 00:10:09;;;;;;;19.85;9.65;;;;;;;17.01;100.00;92487.56;4955582;29;20054;-79
2023/07/04 00:12:35;;;;;;;15.82;9.02;;;;;;;16.98;100.00;92490.13;4964424;28;20396;-79
2023/07/04 00:15:00;;;;;;;15.18;8.80;;;;;;;17.17;100.00;92500.94;4976822;28;20130;-79
2023/07/04 00:17:27;;;;;;;15.52;8.45;;;;;;;17.22;100.00;92500.75;4951266;28;20031;-79
2023/07/04 00:19:52;;;;;;;925.60;31.00;;;;;;;17.16;100.00;92507.34;4949994;29;20038;-79
2023/07/04 00:22:19;;;;;;;893.40;27.10;;;;;;;16.91;100.00;92516.28;4965197;28;20047;-79
2023/07/04 00:24:45;;;;;;;1764.82;55.75;;;;;;;16.60;100.00;92528.00;4965126;28;20058;-79
2023/07/04 00:27:14;;;;;;;8.98;5.30;;;;;;;16.37;100.00;92532.81;4957505;29;20043;-79
2023/07/04 00:29:40;;;;;;;36.45;8.27;;;;;;;16.25;100.00;92528.22;4951919;28;20028;-78
2023/07/04 00:32:07;;;;;;;19.67;8.77;;;;;;;16.02;100.00;92531.13;4963560;28;20039;-78
2023/07/04 00:34:34;;;;;;;19.90;8.52;;;;;;;16.00;100.00;92528.03;4966952;28;20123;-78
2023/07/04 00:37:01;;;;;;;14.73;7.82;;;;;;;16.09;100.00;92529.88;4965840;29;20027;-79
2023/07/04 00:39:28;;;;;;;14.70;7.65;;;;;;;15.90;100.00;92531.03;4964034;28;20047;-79
2023/07/04 00:41:54;;;;;;;13.93;7.60;;;;;;;15.75;100.00;92527.06;4964133;29;20046;-79
2023/07/04 00:44:24;;;;;;;19.45;8.23;;;;;;;15.77;100.00;92524.13;4978304;28;20039;-79
2023/07/04 00:46:53;;;;;;;13.07;6.88;;;;;;;15.61;100.00;92516.69;4979666;28;20048;-79
2023/07/04 00:49:29;;;;;;;13.68;4.95;;;;;;;15.43;100.00;92525.75;4963595;29;20041;-79
2023/07/04 00:52:25;;;;;;;12.00;5.03;;;;;;;15.56;100.00;92548.53;4960572;29;20050;-79
2023/07/04 00:54:53;;;;;;;11.48;3.90;;;;;;;15.44;100.00;92569.50;4959776;29;20050;-79
2023/07/04 00:57:23;;;;;;;6.00;3.40;;;;;;;15.47;100.00;92571.53;4961603;29;20035;-79
2023/07/04 00:59:57;;;;;;;7.15;3.78;;;;;;;15.55;100.00;92565.44;4980618;28;20039;-79
2023/07/04 01:02:28;;;;;;;9.23;3.60;;;;;;;15.50;100.00;92551.66;4969423;28;20039;-79
2023/07/04 01:04:54;;;;;;;7.82;4.43;;;;;;;15.45;100.00;92539.41;4957780;28;20073;-79
2023/07/04 01:07:25;;;;;;;11.18;4.38;;;;;;;15.49;100.00;92535.03;4946647;29;20086;-79
2023/07/04 01:10:03;;;;;;;14.98;3.83;;;;;;;15.52;100.00;92538.91;4952798;29;20504;-79
2023/07/04 01:12:30;;;;;;;8.65;4.30;;;;;;;15.52;100.00;92565.28;4963407;28;20091;-79
2023/07/04 01:14:57;;;;;;;9.02;3.97;;;;;;;15.53;100.00;92583.44;4965022;28;20039;-79
2023/07/04 01:17:23;;;;;;;9.93;4.45;;;;;;;15.51;100.00;92577.69;4972739;28;20034;-78
2023/07/04 01:19:50;;;;;;;10.65;4.47;;;;;;;15.52;100.00;92573.97;4984687;28;20070;-79
2023/07/04 01:22:23;;;;;;;8.65;4.28;;;;;;;15.51;100.00;92574.28;4969446;28;20050;-79
2023/07/04 01:25:01;;;;;;;8.52;4.47;;;;;;;15.49;100.00;92577.25;4979308;28;20031;-79
2023/07/04 01:27:29;;;;;;;9.57;4.32;;;;;;;15.48;100.00;92573.06;4962031;28;20027;-79
2023/07/04 01:30:00;;;;;;;9.57;4.15;;;;;;;15.50;100.00;92573.53;4956028;29;20086;-78
2023/07/04 01:32:27;;;;;;;9.15;4.18;;;;;;;15.48;100.00;92569.66;4947539;28;20428;-78
2023/07/04 01:34:58;;;;;;;7.57;3.95;;;;;;;15.49;100.00;92571.97;4959611;28;20031;-78
2023/07/04 01:37:25;;;;;;;8.75;3.88;;;;;;;15.49;100.00;92577.25;4960652;28;20051;-78
2023/07/04 01:39:51;;;;;;;11.95;4.30;;;;;;;15.50;100.00;92568.25;4956101;29;20043;-78
2023/07/04 01:42:18;;;;;;;13.60;4.68;;;;;;;15.49;100.00;92566.72;4954072;28;20040;-78
2023/07/04 01:44:44;;;;;;;10.20;4.50;;;;;;;15.51;100.00;92563.72;4958543;28;20031;-78
2023/07/04 01:47:09;;;;;;;23.73;4.95;;;;;;;15.59;100.00;92555.81;4959840;28;20169;-79
2023/07/04 01:49:35;;;;;;;9.95;4.55;;;;;;;15.55;100.00;92539.03;4960141;28;20043;-78
2023/07/04 01:52:00;;;;;;;11.10;5.05;;;;;;;15.57;100.00;92536.88;4958841;29;20039;-78
2023/07/04 01:54:26;;;;;;;12.48;5.00;;;;;;;15.58;100.00;92522.59;4956189;29;20035;-78
2023/07/04 01:56:52;;;;;;;10.45;5.35;;;;;;;15.64;100.00;92535.63;4959737;28;20053;-78
2023/07/04 01:59:20;;;;;;;10.98;4.70;;;;;;;15.58;100.00;92533.16;4959410;29;20549;-78
2023/07/04 02:01:46;;;;;;;10.45;5.15;;;;;;;15.56;100.00;92543.25;4959746;29;20055;-78
2023/07/04 02:04:11;;;;;;;8.60;4.93;;;;;;;15.55;100.00;92544.31;4954047;29;20047;-79
2023/07/04 02:06:37;;;;;;;16.38;5.55;;;;;;;15.55;100.00;92541.69;4959458;28;20035;-80
2023/07/04 02:09:03;;;;;;;11.20;5.68;;;;;;;15.59;100.00;92547.88;4951579;28;20046;-80
2023/07/04 02:11:28;;;;;;;12.65;6.00;;;;;;;15.62;100.00;92547.25;4960819;29;20517;-79
2023/07/04 02:13:55;;;;;;;13.10;5.75;;;;;;;15.61;100.00;92537.78;4952468;29;20047;-79
2023/07/04 02:16:20;;;;;;;13.07;5.72;;;;;;;15.71;100.00;92543.84;4965725;28;20062;-80
2023/07/04 02:18:46;;;;;;;12.38;5.82;;;;;;;15.61;100.00;92553.63;4963713;29;20659;-79
2023/07/04 02:21:13;;;;;;;10.93;5.70;;;;;;;15.55;100.00;92559.38;4965824;28;20507;-79
2023/07/04 02:23:38;;;;;;;10.95;5.60;;;;;;;15.56;100.00;92566.22;4961665;28;20058;-80
2023/07/04 02:26:04;;;;;;;12.10;6.22;;;;;;;15.57;100.00;92562.47;4959389;28;20040;-79
2023/07/04 02:28:29;;;;;;;15.05;5.85;;;;;;;15.57;100.00;92555.34;4945564;29;20049;-78
2023/07/04 02:30:57;;;;;;;11.20;6.18;;;;;;;15.59;100.00;92547.88;4957660;29;20031;-79
2023/07/04 02:33:23;;;;;;;9.40;5.40;;;;;;;15.58;100.00;92548.19;4960672;29;20044;-79
2023/07/04 02:35:50;;;;;;;13.30;6.00;;;;;;;15.59;100.00;92550.53;4954844;29;20039;-79
2023/07/04 02:38:18;;;;;;;10.43;5.68;;;;;;;15.56;100.00;92539.84;4960040;29;20034;-79
2023/07/04 02:40:45;;;;;;;10.93;5.53;;;;;;;15.56;100.00;92543.25;4962002;28;20039;-79
2023/07/04 02:43:12;;;;;;;14.65;6.40;;;;;;;15.61;100.00;92558.91;4963971;28;20102;-79
2023/07/04 02:45:39;;;;;;;12.63;6.28;;;;;;;15.50;100.00;92552.41;4960487;28;20556;-79
2023/07/04 02:48:07;;;;;;;15.63;6.20;;;;;;;15.41;100.00;92549.03;4962433;29;20047;-79
2023/07/04 02:50:33;;;;;;;16.75;6.60;;;;;;;15.34;100.00;92541.59;4962725;29;20075;-78
2023/07/04 02:52:59;;;;;;;18.80;6.72;;;;;;;15.30;100.00;92542.53;4963119;28;20171;-79
2023/07/04 02:55:27;;;;;;;13.77;6.75;;;;;;;15.28;100.00;92545.47;4961417;28;20075;-78
2023/07/04 02:57:53;;;;;;;15.13;5.90;;;;;;;15.24;100.00;92541.13;4952902;29;20047;-79
2023/07/04 03:00:18;;;;;;;12.80;6.30;;;;;;;15.26;100.00;92541.59;4947189;29;20035;-79
2023/07/04 03:02:46;;;;;;;16.10;7.13;;;;;;;15.26;100.00;92544.25;4961810;28;20043;-79
2023/07/04 03:05:12;;;;;;;12.88;6.05;;;;;;;15.23;100.00;92547.50;4963733;28;20043;-79
2023/07/04 03:07:39;;;;;;;13.57;5.82;;;;;;;15.20;100.00;92543.66;4959990;28;20568;-79
2023/07/04 03:10:06;;;;;;;12.65;6.05;;;;;;;15.14;100.00;92534.34;4961858;28;20087;-79
2023/07/04 03:12:32;;;;;;;13.68;6.05;;;;;;;15.13;100.00;92533.56;4962058;28;20039;-79
2023/07/04 03:14:59;;;;;;;10.45;5.85;;;;;;;15.11;100.00;92535.75;4961876;28;20393;-79
2023/07/04 03:17:26;;;;;;;11.25;6.32;;;;;;;15.09;100.00;92535.28;4959775;29;20561;-79
2023/07/04 03:19:52;;;;;;;14.20;5.95;;;;;;;15.07;100.00;92537.44;4950540;29;20048;-80
2023/07/04 03:22:19;;;;;;;10.73;6.28;;;;;;;15.02;100.00;92529.72;4948635;29;20108;-79
2023/07/04 03:24:45;;;;;;;12.48;6.10;;;;;;;15.02;100.00;92537.63;4958492;28;20453;-79
2023/07/04 03:27:11;;;;;;;10.20;5.72;;;;;;;15.04;100.00;92529.38;4961180;29;20589;-78
2023/07/04 03:29:37;;;;;;;12.55;6.25;;;;;;;15.05;100.00;92531.72;4961608;28;20038;-79
2023/07/04 03:32:03;;;;;;;13.32;6.38;;;;;;;15.09;100.00;92527.38;4958948;29;20035;-79
2023/07/04 03:34:29;;;;;;;16.27;6.28;;;;;;;15.10;100.00;92526.25;4958309;29;20118;-79
2023/07/04 03:36:54;;;;;;;11.38;6.05;;;;;;;15.08;100.00;92536.34;4942422;29;20195;-79
2023/07/04 03:39:20;;;;;;;19.05;6.10;;;;;;;15.06;100.00;92538.53;4949836;29;20047;-79
2023/07/04 03:41:46;;;;;;;15.90;6.07;;;;;;;15.04;100.00;92534.66;4966126;29;20035;-79
2023/07/04 03:44:11;;;;;;;15.45;6.63;;;;;;;15.00;100.00;92539.78;4964862;28;20050;-78
2023/07/04 03:46:37;;;;;;;13.25;6.30;;;;;;;14.99;100.00;92543.50;4963006;28;20047;-79
2023/07/04 03:49:02;;;;;;;19.70;6.80;;;;;;;15.01;100.00;92545.81;4960601;28;20261;-79
2023/07/04 03:51:28;;;;;;;15.98;6.20;;;;;;;15.02;100.00;92547.38;4953657;28;20481;-79
2023/07/04 03:53:53;;;;;;;17.77;6.75;;;;;;;15.03;100.00;92548.94;4968278;28;20050;-79
2023/07/04 03:56:19;;;;;;;12.40;6.38;;;;;;;15.02;100.00;92550.78;4954580;28;20043;-79
2023/07/04 03:58:44;;;;;;;13.65;6.55;;;;;;;15.03;100.00;92548.94;4944367;29;20024;-79
2023/07/04 04:01:10;;;;;;;12.70;6.63;;;;;;;15.04;100.00;92556.53;4953872;28;20409;-78
2023/07/04 04:03:37;;;;;;;14.38;6.63;;;;;;;15.07;100.00;92573.59;4966274;29;20047;-79
2023/07/04 04:06:05;;;;;;;11.73;6.30;;;;;;;15.09;100.00;92564.28;4964149;29;20047;-79
2023/07/04 04:08:31;;;;;;;11.70;6.38;;;;;;;15.11;100.00;92569.25;4948277;28;20055;-79
2023/07/04 04:10:57;;;;;;;14.50;6.63;;;;;;;15.12;100.00;92563.63;4963159;28;20067;-79
2023/07/04 04:13:24;;;;;;;17.05;7.28;;;;;;;15.17;100.00;92566.13;4966298;28;20035;-79
2023/07/04 04:15:50;;;;;;;13.20;6.88;;;;;;;15.27;100.00;92577.44;4965599;28;20060;-78
2023/07/04 04:18:15;;;;;;;12.73;6.80;;;;;;;15.30;100.00;92574.94;4960334;29;20532;-79
2023/07/04 04:20:41;;;;;;;14.32;6.90;;;;;;;15.33;100.00;92568.25;4965351;28;20099;-79
2023/07/04 04:23:07;;;;;;;18.50;6.70;;;;;;;15.35;100.00;92566.09;4961057;28;20051;-79
2023/07/04 04:25:38;;;;;;;11.93;6.47;;;;;;;15.38;100.00;92571.53;4945522;29;20031;-78
2023/07/04 04:28:07;;;;;;;13.98;6.57;;;;;;;15.42;100.00;92574.28;4953489;28;20176;-78
2023/07/04 04:30:34;;;;;;;15.02;6.65;;;;;;;15.46;100.00;92577.88;4965105;28;20039;-79
2023/07/04 04:33:02;;;;;;;15.80;6.63;;;;;;;15.53;100.00;92572.88;4961086;28;20163;-78
2023/07/04 04:35:28;;;;;;;12.18;6.50;;;;;;;15.54;100.00;92566.53;4978749;28;20066;-79
2023/07/04 04:37:54;;;;;;;19.40;6.60;;;;;;;15.61;100.00;92574.72;4958443;29;20556;-80
2023/07/04 04:40:22;;;;;;;15.77;6.63;;;;;;;15.66;100.00;92589.63;4923048;29;20031;-77
2023/07/04 04:42:53;;;;;;;11.68;6.10;;;;;;;15.64;100.00;92570.69;4951954;29;20186;-78
2023/07/04 04:45:23;;;;;;;18.80;7.20;;;;;;;15.73;100.00;92579.38;4953200;28;20047;-79
2023/07/04 04:47:52;;;;;;;12.13;6.20;;;;;;;15.73;100.00;92574.09;4949432;28;20039;-78
2023/07/04 04:50:23;;;;;;;14.73;6.72;;;;;;;15.58;100.00;92582.50;4951955;29;20497;-77
2023/07/04 04:52:49;;;;;;;14.00;6.25;;;;;;;15.58;100.00;92585.13;4953560;29;20128;-79
2023/07/04 04:55:15;;;;;;;17.95;6.95;;;;;;;15.61;100.00;92595.06;4958309;28;20115;-78
2023/07/04 04:57:41;;;;;;;15.73;6.63;;;;;;;15.61;100.00;92595.06;4955491;29;20079;-78
2023/07/04 05:00:08;;;;;;;16.33;6.85;;;;;;;15.61;100.00;92595.84;4952655;29;20043;-79
2023/07/04 05:02:34;;;;;;;17.05;6.70;;;;;;;15.66;100.00;92588.84;4954308;28;20043;-80
2023/07/04 05:04:59;;;;;;;13.57;6.53;;;;;;;15.67;100.00;92588.53;4958003;28;20057;-82
2023/07/04 05:07:26;;;;;;;17.75;7.55;;;;;;;15.70;100.00;92587.91;4957179;29;20031;-78
2023/07/04 05:09:53;;;;;;;16.92;7.82;;;;;;;15.71;100.00;92581.56;4960364;28;20098;-79
2023/07/04 05:12:19;;;;;;;16.80;7.28;;;;;;;15.73;100.00;92582.03;4959135;29;20856;-79
2023/07/04 05:14:44;;;;;;;18.45;7.68;;;;;;;15.76;100.00;92591.16;4960409;28;20090;-79
2023/07/04 05:17:10;;;;;;;21.00;7.25;;;;;;;15.80;100.00;92592.09;4957875;28;20036;-78
2023/07/04 05:19:36;;;;;;;15.38;6.38;;;;;;;15.83;100.00;92586.19;4963513;28;20035;-78
2023/07/04 05:22:02;;;;;;;18.70;7.65;;;;;;;15.88;100.00;92588.66;4962478;29;20107;-78
2023/07/04 05:24:27;;;;;;;20.05;7.22;;;;;;;15.89;100.00;92587.56;4962587;28;20077;-79
2023/07/04 05:26:53;;;;;;;15.90;7.38;;;;;;;15.94;100.00;92586.59;4959599;28;20070;-79
2023/07/04 05:29:19;;;;;;;14.05;7.32;;;;;;;15.95;100.00;92588.94;4962895;28;20039;-79
2023/07/04 05:31:44;;;;;;;19.35;7.90;;;;;;;15.99;100.00;92591.72;4961828;29;20098;-79
2023/07/04 05:34:10;;;;;;;14.77;7.35;;;;;;;16.03;100.00;92593.41;4961509;29;20035;-79
2023/07/04 05:36:37;;;;;;;16.80;7.38;;;;;;;16.08;100.00;92591.69;4947544;29;20032;-78
2023/07/04 05:39:06;;;;;;;20.00;8.50;;;;;;;16.12;100.00;92592.59;4953896;29;20043;-78
2023/07/04 05:41:34;;;;;;;16.05;6.78;;;;;;;16.17;100.00;92589.78;4977630;28;20039;-78
2023/07/04 05:44:02;;;;;;;20.75;7.30;;;;;;;16.22;100.00;92593.03;4963467;28;20031;-78
2023/07/04 05:46:27;;;;;;;14.18;7.05;;;;;;;16.26;100.00;92593.16;4961463;28;20082;-78
2023/07/04 05:48:53;;;;;;;21.33;7.65;;;;;;;16.35;100.00;92588.63;4962474;29;20039;-78
2023/07/04 05:51:20;;;;;;;20.90;7.10;;;;;;;16.43;100.00;92592.28;4962155;28;20466;-78
2023/07/04 05:53:50;;;;;;;17.38;7.63;;;;;;;16.55;100.00;92594.25;4939853;29;20028;-78
2023/07/04 05:56:20;;;;;;;16.75;7.47;;;;;;;16.67;100.00;92591.69;4961009;28;20043;-78
2023/07/04 05:58:51;;;;;;;17.08;8.20;;;;;;;16.80;100.00;92592.59;4942905;29;20019;-78
2023/07/04 06:01:19;;;;;;;19.45;7.78;;;;;;;16.94;100.00;92589.69;4941780;29;20225;-78
2023/07/04 06:03:45;;;;;;;19.63;7.75;;;;;;;17.05;100.00;92598.78;4951606;29;20425;-78
2023/07/04 06:06:31;;;;;;;21.88;8.40;;;;;;;17.17;100.00;92598.81;4948730;29;20031;-78
2023/07/04 06:08:58;;;;;;;20.48;8.00;;;;;;;17.39;100.00;92599.59;4972200;28;20050;-78
2023/07/04 06:11:29;;;;;;;22.98;8.80;;;;;;;17.42;100.00;92604.22;4962461;28;20086;-78
2023/07/04 06:13:55;;;;;;;20.15;8.23;;;;;;;17.43;100.00;92595.97;4960902;28;20078;-78
2023/07/04 06:16:21;;;;;;;17.08;7.03;;;;;;;17.48;100.00;92602.91;4950337;28;20039;-78
2023/07/04 06:18:47;;;;;;;18.83;7.72;;;;;;;18.37;100.00;92601.66;4943611;29;20122;-78
2023/07/04 06:21:13;;;;;;;20.50;7.85;;;;;;;18.19;100.00;92603.75;4955297;28;20036;-78
2023/07/04 06:23:40;;;;;;;17.25;8.07;;;;;;;18.22;100.00;92603.13;4959167;29;20066;-78
2023/07/04 06:26:06;;;;;;;17.95;7.30;;;;;;;18.85;100.00;92608.84;4956289;29;20031;-78
2023/07/04 06:28:34;;;;;;;14.55;7.55;;;;;;;19.71;100.00;92608.59;4961386;29;20070;-78
2023/07/04 06:31:03;;;;;;;15.80;5.97;;;;;;;20.54;100.00;92611.41;4961789;28;20074;-78
2023/07/04 06:33:29;;;;;;;76.88;9.27;;;;;;;19.47;100.00;92620.06;4962556;28;20027;-78
2023/07/04 06:35:55;;;;;;;19.00;7.57;;;;;;;18.78;100.00;92613.94;4961548;28;20140;-78
2023/07/04 06:38:21;;;;;;;23.50;7.80;;;;;;;18.68;100.00;92609.81;4956496;28;20035;-78
2023/07/04 06:40:58;;;;;;;18.73;8.35;;;;;;;18.75;100.00;92611.16;4947389;28;20484;-77
2023/07/04 06:43:25;;;;;;;18.40;7.82;;;;;;;18.85;100.00;92616.81;4944454;29;20043;-78
2023/07/04 06:45:51;;;;;;;17.95;7.32;;;;;;;18.80;100.00;92617.03;4953326;28;20031;-77
2023/07/04 06:48:17;;;;;;;15.40;7.05;;;;;;;18.81;100.00;92617.81;4963022;29;20039;-78
2023/07/04 06:50:45;;;;;;;18.15;9.02;;;;;;;18.68;100.00;92617.00;4955946;29;20035;-78
2023/07/04 06:53:11;;;;;;;17.52;8.73;;;;;;;18.59;100.00;92616.34;4954460;29;20047;-78
2023/07/04 06:55:36;;;;;;;24.90;9.50;;;;;;;18.67;100.00;92618.13;4967311;28;20101;-78
2023/07/04 06:58:04;;;;;;;25.13;8.48;;;;;;;18.55;100.00;92620.78;4974225;28;20043;-78
2023/07/04 07:00:30;;;;;;;26.45;8.20;;;;;;;18.73;100.00;92627.38;4957056;28;20035;-78
2023/07/04 07:02:55;;;;;;;21.40;10.10;;;;;;;18.91;100.00;92622.63;4956189;28;20034;-78
2023/07/04 07:05:21;;;;;;;21.00;8.80;;;;;;;19.20;100.00;92618.94;4957103;28;20049;-78
2023/07/04 07:07:48;;;;;;;26.27;8.90;;;;;;;19.68;100.00;92627.84;4957594;28;20072;-78
2023/07/04 07:10:13;;;;;;;18.85;7.72;;;;;;;20.11;100.00;92626.31;4958499;28;20055;-78
2023/07/04 07:12:39;;;;;;;21.30;7.00;;;;;;;20.24;100.00;92626.22;4939455;29;20043;-78
2023/07/04 07:15:05;;;;;;;19.10;7.20;;;;;;;20.36;100.00;92634.13;4962823;28;20046;-78
2023/07/04 07:17:32;;;;;;;25.38;9.98;;;;;;;20.12;100.00;92630.50;4958977;29;20047;-78
2023/07/04 07:19:58;;;;;;;29.35;10.90;;;;;;;19.84;100.00;92635.13;4945094;29;20036;-78
2023/07/04 07:22:25;;;;;;;20.67;8.95;;;;;;;19.66;100.00;92640.69;4960146;29;20509;-78
2023/07/04 07:24:50;;;;;;;30.10;10.77;;;;;;;19.47;100.00;92638.63;4950666;28;20576;-78
2023/07/04 07:27:16;;;;;;;26.13;10.55;;;;;;;19.63;100.00;92635.28;4964648;29;20051;-78
2023/07/04 07:29:42;;;;;;;25.85;10.55;;;;;;;19.79;100.00;92638.00;4964081;28;20493;-78
2023/07/04 07:32:09;;;;;;;19.95;10.35;;;;;;;19.87;100.00;92637.09;4959767;29;20458;-78
2023/07/04 07:34:34;;;;;;;25.88;11.10;;;;;;;19.86;100.00;92640.84;4953289;28;20058;-78
2023/07/04 07:37:00;;;;;;;22.83;10.85;;;;;;;19.64;100.00;92642.13;4965135;28;20070;-78
2023/07/04 07:39:26;;;;;;;22.27;11.48;;;;;;;19.79;100.00;92644.06;4964402;28;20059;-78
2023/07/04 07:41:51;;;;;;;25.73;10.60;;;;;;;20.03;100.00;92643.19;4962222;28;20047;-78
2023/07/04 07:44:17;;;;;;;23.70;10.35;;;;;;;20.29;100.00;92634.72;4955390;29;20524;-77
2023/07/04 07:46:44;;;;;;;23.80;9.25;;;;;;;20.62;100.00;92640.84;4944880;29;20042;-78
2023/07/04 07:49:10;;;;;;;23.33;9.65;;;;;;;20.24;100.00;92636.84;4961257;29;20046;-78
2023/07/04 07:51:37;;;;;;;19.88;8.90;;;;;;;20.20;100.00;92630.69;4976895;28;20039;-78
2023/07/04 07:54:06;;;;;;;23.55;10.32;;;;;;;20.05;100.00;92638.31;4957145;28;20536;-77
2023/07/04 07:56:44;;;;;;;19.77;10.48;;;;;;;19.60;100.00;92639.38;4942069;29;20390;-78
2023/07/04 07:59:11;;;;;;;22.48;10.63;;;;;;;20.02;100.00;92632.88;4948258;29;20027;-77
2023/07/04 08:01:37;;;;;;;19.42;9.60;;;;;;;19.77;100.00;92641.00;4976461;28;20031;-78
2023/07/04 08:04:05;;;;;;;20.20;9.20;;;;;;;19.69;100.00;92645.34;4960480;28;20130;-78
2023/07/04 08:06:38;;;;;;;22.02;9.00;;;;;;;19.76;100.00;92634.91;4956743;28;20031;-78
2023/07/04 08:09:05;;;;;;;39.42;9.68;;;;;;;20.10;100.00;92638.03;4957680;29;20164;-77
2023/07/04 08:11:31;;;;;;;19.13;9.98;;;;;;;20.29;100.00;92632.06;4957900;29;20422;-78
2023/07/04 08:13:58;;;;;;;22.15;9.93;;;;;;;20.23;100.00;92632.66;4954011;29;20035;-77
2023/07/04 08:16:39;;;;;;;25.80;9.73;;;;;;;20.44;100.00;92637.72;4955991;28;20110;-78
2023/07/04 08:19:05;;;;;;;25.02;9.65;;;;;;;20.75;100.00;92639.63;4954392;28;20035;-78
2023/07/04 08:21:30;;;;;;;17.58;8.10;;;;;;;20.72;100.00;92637.66;4938813;29;20569;-78
2023/07/04 08:23:58;;;;;;;22.38;8.98;;;;;;;20.36;100.00;92634.91;4944938;29;20042;-77
2023/07/04 08:26:26;;;;;;;19.30;8.82;;;;;;;20.16;100.00;92636.69;4971300;28;20122;-77
2023/07/04 08:28:53;;;;;;;21.95;6.85;;;;;;;20.27;100.00;92636.19;4957723;28;20039;-78
2023/07/04 08:31:20;;;;;;;15.27;6.75;;;;;;;20.31;100.00;92639.69;4953210;29;20067;-78
2023/07/04 08:33:47;;;;;;;18.20;8.95;;;;;;;20.36;100.00;92644.78;4938486;29;20044;-78
2023/07/04 08:36:14;;;;;;;22.65;10.40;;;;;;;20.55;100.00;92641.41;4952914;28;20043;-77
2023/07/04 08:38:41;;;;;;;22.40;10.48;;;;;;;20.59;100.00;92637.75;4950078;28;20035;-77
2023/07/04 08:41:23;;;;;;;21.50;10.48;;;;;;;20.45;100.00;92637.38;4955518;28;20087;-78
2023/07/04 08:43:58;;;;;;;19.98;8.35;;;;;;;20.77;100.00;92638.16;4936835;29;20426;-78
2023/07/04 08:46:24;;;;;;;21.08;8.38;;;;;;;20.89;100.00;92631.94;4954650;28;20059;-78
2023/07/04 08:48:50;;;;;;;17.85;8.73;;;;;;;20.90;100.00;92640.72;4957770;28;20411;-77
2023/07/04 08:51:40;;;;;;;17.98;8.57;;;;;;;20.77;100.00;92629.41;4956410;29;20098;-78
2023/07/04 08:54:11;;;;;;;14.20;6.68;;;;;;;20.89;100.00;92639.94;4972014;28;20094;-78
2023/07/04 08:56:38;;;;;;;18.33;7.55;;;;;;;21.07;100.00;92631.56;4950059;28;20042;-77
2023/07/04 08:59:08;;;;;;;20.40;7.75;;;;;;;21.19;100.00;92626.16;4956111;29;20485;-77
2023/07/04 09:01:57;;;;;;;17.25;8.02;;;;;;;21.13;100.00;92633.63;4957583;29;20448;-77
2023/07/04 09:04:25;;;;;;;22.50;9.57;;;;;;;21.19;100.00;92631.47;4955545;29;20039;-77
2023/07/04 09:07:12;;;;;;;21.35;8.95;;;;;;;21.10;100.00;92630.91;4941838;28;20042;-77
2023/07/04 09:09:49;;;;;;;18.38;9.30;;;;;;;21.13;100.00;92627.53;4947337;29;20047;-78
2023/07/04 09:12:16;;;;;;;17.63;8.95;;;;;;;21.11;100.00;92625.22;4957179;28;20077;-77
2023/07/04 09:14:53;;;;;;;23.48;10.07;;;;;;;21.09;100.00;92626.69;4955722;28;20504;-77
2023/07/04 09:17:44;;;;;;;23.08;9.43;;;;;;;21.17;100.00;92629.16;4956276;29;20421;-78
2023/07/04 09:20:10;;;;;;;21.33;8.85;;;;;;;20.95;100.00;92627.16;4947038;29;20093;-78
2023/07/04 09:22:36;;;;;;;25.08;9.95;;;;;;;21.09;100.00;92632.00;4955477;28;20023;-77
2023/07/04 09:25:04;;;;;;;29.65;11.38;;;;;;;21.22;100.00;92630.75;4956118;28;20671;-78
2023/07/04 09:27:30;;;;;;;26.20;11.07;;;;;;;21.78;100.00;92630.38;4956611;28;20663;-78
2023/07/04 09:29:57;;;;;;;21.35;9.93;;;;;;;21.42;100.00;92624.34;4956951;28;20077;-78
2023/07/04 09:32:23;;;;;;;26.25;9.73;;;;;;;21.79;100.00;92626.56;4956252;28;20038;-77
2023/07/04 09:34:56;;;;;;;32.85;12.93;;;;;;;22.03;100.00;92622.06;4953569;28;20063;-77
2023/07/04 09:37:24;;;;;;;22.23;9.52;;;;;;;21.68;100.00;92625.59;4958812;28;20047;-78
2023/07/04 09:39:54;;;;;;;28.85;9.75;;;;;;;22.04;100.00;92632.38;4959118;29;20030;-78
2023/07/04 09:42:24;;;;;;;21.00;9.35;;;;;;;21.88;100.00;92633.59;4955492;29;20035;-77
2023/07/04 09:44:54;;;;;;;19.10;8.70;;;;;;;21.90;100.00;92626.78;4947786;28;20122;-77
2023/07/04 09:47:26;;;;;;;25.73;8.52;;;;;;;22.01;100.00;92632.31;4955385;29;20051;-77
2023/07/04 09:50:09;;;;;;;24.83;10.07;;;;;;;21.80;100.00;92627.38;4955452;29;20073;-77
2023/07/04 09:52:35;;;;;;;21.63;9.38;;;;;;;22.02;100.00;92631.16;4956694;28;20046;-78
2023/07/04 09:55:16;;;;;;;23.77;11.63;;;;;;;22.20;100.00;92632.28;4944072;28;20107;-78
2023/07/04 09:57:44;;;;;;;22.15;9.18;;;;;;;22.29;100.00;92631.28;4945345;29;20035;-78
2023/07/04 10:00:22;;;;;;;17.73;8.52;;;;;;;22.48;100.00;92628.56;4957885;29;20031;-78
2023/07/04 10:02:56;;;;;;;20.95;8.70;;;;;;;22.29;100.00;92625.94;4955522;29;20045;-78
2023/07/04 10:05:31;;;;;;;16.58;7.93;;;;;;;22.20;100.00;92629.63;4955395;28;20039;-78
2023/07/04 10:08:09;;;;;;;19.88;8.18;;;;;;;22.39;100.00;92628.81;4971265;28;20031;-77
2023/07/04 10:10:38;;;;;;;17.70;7.35;;;;;;;22.60;100.00;92623.03;4957047;29;20073;-78
2023/07/04 10:13:07;;;;;;;16.38;7.05;;;;;;;22.58;100.00;92622.63;4958136;29;20035;-78
2023/07/04 10:15:45;;;;;;;18.35;7.47;;;;;;;22.24;100.00;92619.03;4957047;28;20039;-78
2023/07/04 10:18:29;;;;;;;15.25;7.28;;;;;;;22.38;100.00;92621.16;4956718;28;20031;-77
2023/07/04 10:20:58;;;;;;;13.70;6.68;;;;;;;22.49;100.00;92624.75;4956924;29;20134;-78
2023/07/04 10:23:26;;;;;;;18.23;7.30;;;;;;;22.31;100.00;92624.47;4956484;28;20419;-77
2023/07/04 10:25:54;;;;;;;16.58;7.43;;;;;;;22.54;100.00;92621.81;4956511;28;20516;-77
2023/07/04 10:28:25;;;;;;;11.60;6.22;;;;;;;22.64;100.00;92615.84;4955235;29;20030;-78
2023/07/04 10:30:56;;;;;;;16.42;6.82;;;;;;;22.61;100.00;92629.91;4955408;28;20085;-78
2023/07/04 10:33:33;;;;;;;12.52;6.03;;;;;;;22.56;100.00;92624.91;4956104;29;20035;-77
2023/07/04 10:36:00;;;;;;;14.18;7.55;;;;;;;22.56;100.00;92624.09;4951901;28;20039;-77
2023/07/04 10:38:37;;;;;;;15.70;7.65;;;;;;;22.43;100.00;92626.22;4953713;29;20102;-78
2023/07/04 10:41:20;;;;;;;14.65;7.25;;;;;;;22.49;100.00;92621.31;4971022;28;20062;-78
2023/07/04 10:43:52;;;;;;;14.60;6.85;;;;;;;22.60;100.00;92619.59;4956727;28;20118;-78
2023/07/04 10:46:23;;;;;;;16.83;7.35;;;;;;;22.74;100.00;92624.38;4956367;28;20110;-77
2023/07/04 10:48:56;;;;;;;13.30;6.67;;;;;;;22.82;100.00;92618.03;4948759;28;20079;-77
2023/07/04 10:51:29;;;;;;;15.25;7.63;;;;;;;22.56;100.00;92624.09;4936700;29;20090;-77
2023/07/04 10:53:55;;;;;;;14.15;6.07;;;;;;;22.76;100.00;92630.88;4937698;29;20069;-78
2023/07/04 10:56:26;;;;;;;13.57;6.30;;;;;;;22.80;100.00;92625.63;4948353;29;20047;-78
2023/07/04 10:58:59;;;;;;;17.45;7.07;;;;;;;22.90;100.00;92625.00;4953159;29;20031;-78
2023/07/04 11:01:39;;;;;;;13.55;6.05;;;;;;;22.90;100.00;92619.69;4937471;29;20072;-77
2023/07/04 11:04:18;;;;;;;13.32;6.53;;;;;;;22.83;100.00;92622.22;4936577;29;20031;-77
2023/07/04 11:06:54;;;;;;;14.88;5.65;;;;;;;22.78;100.00;92617.97;4936629;29;20039;-78
2023/07/04 11:09:20;;;;;;;15.57;7.22;;;;;;;22.99;100.00;92619.41;4950179;29;20059;-78
2023/07/04 11:11:47;;;;;;;13.45;6.47;;;;;;;;;;4955995;29;20054;-78
2023/07/04 11:14:26;;;;;;;15.15;6.32;;;;;;;23.02;100.00;92619.47;4954632;28;20089;-78
2023/07/04 11:16:56;;;;;;;13.25;6.63;;;;;;;23.08;100.00;92619.97;4956161;28;20516;-78
2023/07/04 11:19:27;;;;;;;13.90;7.00;;;;;;;23.19;100.00;92614.75;4956354;28;20031;-78
2023/07/04 11:22:16;;;;;;;13.43;6.93;;;;;;;23.24;100.00;92622.47;4971445;28;20027;-78